Cielo Di Capri — 9HA4243 — position and weather

sailwx.info

Track history (hours):
 
Tides and Currents Weather Stations Pressure Air Temp Water Temp Dewpoint Dewpoint Depression Visibility Wind Speed Wind Dir Waves Ship Positions

Cielo Di Capri

Last reported at 2018-Aug-14 05:21 UTC. Time now 2018-Aug-14 07:01 UTC.
Position N 55°23' E 011°02'.

Length 184 m; draft 12.1 m.

Type: Tanker. MMSI: 249435000.

Date/timePositionNaut miles runAvg speedWind from/ knotsBaromVisibWave heightAir tempDewpointWater temp
2018-Aug-14 05:21N 55°23' E 011°02'512.9
2018-Aug-14 04:59N 55°18' E 011°03'612.0
2018-Aug-14 04:28N 55°12' E 011°05'512.0
2018-Aug-14 04:00N 55°08' E 010°59'612.4
2018-Aug-14 03:30N 55°01' E 010°60'611.5
2018-Aug-14 03:00N 54°57' E 010°54'5 9.7
2018-Aug-14 02:30N 54°52' E 010°50'510.2
2018-Aug-14 02:00N 54°47' E 010°49'510.2
2018-Aug-14 01:30N 54°42' E 010°47'510.3
2018-Aug-14 01:00N 54°39' E 010°53'510.3
2018-Aug-14 00:30N 54°36' E 011°01'510.5
2018-Aug-14 00:00N 54°36' E 011°10'510.7
2018-Aug-13 23:30N 54°34' E 011°19'510.9
2018-Aug-13 23:00N 54°31' E 011°27'510.9
2018-Aug-13 22:30N 54°29' E 011°36'510.8
2018-Aug-13 22:00N 54°27' E 011°44'510.0
2018-Aug-13 21:30N 54°26' E 011°52'510.7
2018-Aug-13 21:00N 54°26' E 012°02'510.4
2018-Aug-13 20:30N 54°26' E 012°11'710.8
2018-Aug-13 19:53N 54°33' E 012°14'410.1
2018-Aug-13 19:27N 54°37' E 012°17'510.5
2018-Aug-13 19:00N 54°40' E 012°23'612.7
2018-Aug-13 18:30N 54°44' E 012°32'713.2
2018-Aug-13 18:01N 54°47' E 012°42'713.2
2018-Aug-13 17:30N 54°49' E 012°52'713.5
2018-Aug-13 17:00N 54°52' E 013°03'713.4
2018-Aug-13 16:30N 54°54' E 013°14'713.1
2018-Aug-13 16:00N 54°56' E 013°25'713.2
2018-Aug-13 15:30N 54°58' E 013°36'613.1
2018-Aug-13 15:01N 55°01' E 013°47'713.1
2018-Aug-13 14:30N 55°03' E 013°57'612.4
2018-Aug-13 14:00N 55°06' E 014°07'713.0
2018-Aug-13 13:30N 55°11' E 014°14'712.9
2018-Aug-13 13:00N 55°16' E 014°22'713.0
2018-Aug-13 12:29N 55°21' E 014°29'613.1
2018-Aug-13 12:01N 55°26' E 014°36'713.1
2018-Aug-13 11:31N 55°32' E 014°41'713.3
2018-Aug-13 11:00N 55°38' E 014°46'713.4
2018-Aug-13 10:31N 55°44' E 014°50'713.1
2018-Aug-13 10:00N 55°50' E 014°55'612.8
2018-Aug-13 09:30N 55°56' E 014°60'611.6
2018-Aug-13 09:00N 56°01' E 014°55'611.5
2018-Aug-13 08:30N 56°06' E 014°50'3 5.4
2018-Aug-13 08:00N 56°09' E 014°49'  
2018-Aug-10 23:27N 56°09' E 014°50'0 0.9
2018-Aug-10 23:00N 56°09' E 014°49'2 4.8
2018-Aug-10 22:30N 56°07' E 014°49'1 2.1
2018-Aug-10 21:59N 56°06' E 014°50'0 0.1
2018-Aug-10 21:29N 56°06' E 014°50'0 0.0
2018-Aug-10 20:50N 56°06' E 014°50'0 0.0
2018-Aug-10 20:29N 56°06' E 014°50'0 0.0
2018-Aug-10 19:59N 56°06' E 014°50'0 0.0
2018-Aug-10 19:29N 56°06' E 014°50'0 0.0
2018-Aug-10 18:59N 56°06' E 014°50'0 0.1
2018-Aug-10 18:29N 56°06' E 014°50'0 0.0
2018-Aug-10 17:53N 56°06' E 014°51'0 0.0
2018-Aug-10 17:29N 56°06' E 014°51'0 0.0
2018-Aug-10 16:59N 56°06' E 014°51'0 0.1
2018-Aug-10 16:26N 56°06' E 014°51'0 0.0
2018-Aug-10 15:59N 56°06' E 014°51'0 0.0
2018-Aug-10 15:26N 56°06' E 014°51'0 0.1
2018-Aug-10 14:59N 56°06' E 014°51'0 0.0
2018-Aug-10 14:29N 56°06' E 014°50'0 0.0
2018-Aug-10 13:53N 56°06' E 014°50'0 0.0
2018-Aug-10 13:29N 56°06' E 014°51'0 0.0
2018-Aug-10 12:59N 56°06' E 014°50'0 0.1
2018-Aug-10 12:29N 56°06' E 014°50'0 0.0
2018-Aug-10 11:56N 56°06' E 014°50'0 0.1
2018-Aug-10 11:29N 56°06' E 014°50'0 0.0
2018-Aug-10 10:59N 56°06' E 014°50'0 0.0
2018-Aug-10 10:29N 56°06' E 014°50'0 0.0
2018-Aug-10 09:59N 56°06' E 014°50'0 0.0
2018-Aug-10 09:29N 56°06' E 014°50'0 0.0
2018-Aug-10 08:59N 56°06' E 014°50'0 0.0
2018-Aug-10 08:29N 56°06' E 014°50'0 0.0
2018-Aug-10 07:59N 56°06' E 014°50'0 0.0
2018-Aug-10 07:29N 56°06' E 014°50'0 0.0
2018-Aug-10 06:59N 56°06' E 014°50'0 0.0
2018-Aug-10 06:29N 56°06' E 014°50'0 0.0
2018-Aug-10 05:59N 56°06' E 014°50'0 0.1
2018-Aug-10 05:29N 56°06' E 014°50'0 0.0
2018-Aug-10 04:59N 56°06' E 014°50'0 0.1
2018-Aug-10 04:29N 56°06' E 014°50'0 0.0
2018-Aug-10 03:59N 56°06' E 014°50'0 0.0
2018-Aug-10 03:26N 56°06' E 014°50'0 0.1
2018-Aug-10 02:59N 56°06' E 014°50'0 0.0
2018-Aug-10 02:29N 56°06' E 014°50'0 0.0
2018-Aug-10 01:59N 56°06' E 014°50'0 0.0
2018-Aug-10 01:29N 56°06' E 014°50'0 0.0
2018-Aug-10 00:56N 56°06' E 014°50'0 0.2
2018-Aug-10 00:26N 56°06' E 014°50'0 0.4
2018-Aug-09 23:56N 56°06' E 014°50'0 0.0
2018-Aug-09 23:26N 56°06' E 014°50'0 0.0
2018-Aug-09 22:56N 56°06' E 014°50'0 0.0
2018-Aug-09 22:26N 56°06' E 014°50'0 0.0
2018-Aug-09 21:56N 56°06' E 014°50'0 0.0
2018-Aug-09 21:26N 56°06' E 014°50'0 0.0
2018-Aug-09 20:56N 56°06' E 014°50'0 0.2
2018-Aug-09 20:29N 56°06' E 014°50'2 3.2
2018-Aug-09 20:00N 56°04' E 014°51'4 8.4
2018-Aug-09 19:31N 56°01' E 014°56'612.8
2018-Aug-09 19:00N 55°55' E 014°51'612.8
2018-Aug-09 18:30N 55°49' E 014°48'612.8
2018-Aug-09 18:00N 55°43' E 014°45'612.7
2018-Aug-09 17:30N 55°37' E 014°42'612.6
2018-Aug-09 17:00N 55°31' E 014°39'611.6
2018-Aug-09 16:30N 55°25' E 014°41'612.7
2018-Aug-09 16:00N 55°20' E 014°34'612.5
2018-Aug-09 15:30N 55°15' E 014°28'612.4
2018-Aug-09 15:00N 55°10' E 014°21'612.0
2018-Aug-09 14:30N 55°09' E 014°11'612.8
2018-Aug-09 14:00N 55°10' E 013°59'712.9
2018-Aug-09 13:30N 55°11' E 013°48'712.7
2018-Aug-09 12:57N 55°12' E 013°36'612.6
2018-Aug-09 12:30N 55°12' E 013°26'713.1
2018-Aug-09 12:00N 55°13' E 013°15'612.9
2018-Aug-09 11:30N 55°14' E 013°04'612.9
2018-Aug-09 11:00N 55°15' E 012°52'612.9
2018-Aug-09 10:30N 55°17' E 012°42'510.0
2018-Aug-09 10:00N 55°22' E 012°38'612.9
2018-Aug-09 09:30N 55°28' E 012°39'4 9.0
2018-Aug-09 09:00N 55°32' E 012°42'4 8.6
2018-Aug-09 08:30N 55°37' E 012°42'510.4
2018-Aug-09 08:00N 55°42' E 012°41'612.4
2018-Aug-09 07:30N 55°48' E 012°42'612.2
2018-Aug-09 07:00N 55°54' E 012°39'612.3
2018-Aug-09 06:30N 55°60' E 012°38'611.6
2018-Aug-09 06:00N 56°05' E 012°35'612.4
2018-Aug-09 05:30N 56°09' E 012°26'712.7
2018-Aug-09 04:59N 56°13' E 012°16'1512.2
2018-Aug-09 03:47N 56°25' E 012°01'3 8.9
2018-Aug-09 03:27N 56°28' E 011°59'1111.8
2018-Aug-09 02:31N 56°39' E 011°55'513.3
2018-Aug-09 02:06N 56°44' E 011°53'213.4
2018-Aug-09 01:58N 56°46' E 011°52'713.1
2018-Aug-09 01:25N 56°52' E 011°48'513.0
2018-Aug-09 01:00N 56°58' E 011°44'713.4
2018-Aug-09 00:28N 57°04' E 011°40'613.1
2018-Aug-09 00:00N 57°10' E 011°36'612.9
2018-Aug-08 23:30N 57°16' E 011°32'612.9
2018-Aug-08 23:00N 57°22' E 011°28'612.7
2018-Aug-08 22:31N 57°28' E 011°24'612.7
2018-Aug-08 22:00N 57°33' E 011°17'612.4
2018-Aug-08 21:31N 57°38' E 011°10'612.2
2018-Aug-08 21:00N 57°43' E 011°04'612.2
2018-Aug-08 20:30N 57°48' E 010°57'612.3
2018-Aug-08 20:00N 57°53' E 010°50'611.7
2018-Aug-08 19:29N 57°55' E 010°40'713.7
2018-Aug-08 19:00N 57°55' E 010°27'713.3
2018-Aug-08 18:30N 57°55' E 010°15'813.8
2018-Aug-08 17:57N 57°55' E 010°01'19712.4
2018-Aug-08 02:10N 55°32' E 005°55'313.0
2018-Aug-08 01:55N 55°29' E 005°53'11712.6
2018-Aug-07 16:36N 53°45' E 004°19'1113.1
2018-Aug-07 15:47N 53°39' E 004°05'813.3
2018-Aug-07 15:09N 53°34' E 003°54'213.3
2018-Aug-07 15:00N 53°32' E 003°51'712.8
2018-Aug-07 14:29N 53°27' E 003°44'1113.3
2018-Aug-07 13:38N 53°17' E 003°36'213.6
2018-Aug-07 13:30N 53°15' E 003°34'713.5
2018-Aug-07 13:00N 53°09' E 003°30'713.6
2018-Aug-07 12:30N 53°03' E 003°25'713.8
2018-Aug-07 12:00N 52°57' E 003°21'713.8
2018-Aug-07 11:30N 52°50' E 003°17'714.0
2018-Aug-07 11:01N 52°44' E 003°11'714.0
2018-Aug-07 10:30N 52°38' E 003°06'714.0
2018-Aug-07 10:01N 52°32' E 003°00'713.9
2018-Aug-07 09:30N 52°26' E 002°55'713.7
2018-Aug-07 09:00N 52°20' E 002°50'713.5
2018-Aug-07 08:30N 52°14' E 002°45'713.1
2018-Aug-07 08:00N 52°07' E 002°42'713.1
2018-Aug-07 07:30N 52°01' E 002°40'612.5
2018-Aug-07 07:00N 51°56' E 002°46'511.0
2018-Aug-07 06:30N 51°51' E 002°42'612.5
2018-Aug-07 06:01N 51°46' E 002°35'612.2
2018-Aug-07 05:30N 51°41' E 002°29'612.2
2018-Aug-07 05:00N 51°37' E 002°22'611.7
2018-Aug-07 04:30N 51°32' E 002°16'611.3
2018-Aug-07 04:01N 51°28' E 002°10'611.4
2018-Aug-07 03:30N 51°24' E 002°04'611.3
2018-Aug-07 03:01N 51°20' E 001°58'611.2
2018-Aug-07 02:30N 51°15' E 001°52'611.1
2018-Aug-07 02:01N 51°11' E 001°46'611.1
2018-Aug-07 01:31N 51°07' E 001°41'611.2
2018-Aug-07 01:00N 51°02' E 001°36'612.1
2018-Aug-07 00:30N 50°58' E 001°29'612.8
2018-Aug-07 00:00N 50°52' E 001°25'713.4
2018-Aug-06 23:30N 50°45' E 001°22'612.8
2018-Aug-06 23:00N 50°40' E 001°17'713.5
2018-Aug-06 22:30N 50°36' E 001°09'713.5
2018-Aug-06 22:01N 50°31' E 001°00'713.6
2018-Aug-06 21:31N 50°29' E 000°51'713.4
2018-Aug-06 21:00N 50°26' E 000°41'713.6
2018-Aug-06 20:30N 50°25' E 000°31'713.4
2018-Aug-06 20:00N 50°23' E 000°20'713.4
2018-Aug-06 19:30N 50°21' E 000°10'713.6
2018-Aug-06 19:00N 50°19' E 000°00'714.0
2018-Aug-06 18:31N 50°17' W 000°10'713.9
2018-Aug-06 18:00N 50°15' W 000°21'714.4
2018-Aug-06 17:30N 50°13' W 000°32'714.6
2018-Aug-06 17:00N 50°12' W 000°43'815.1
2018-Aug-06 16:30N 50°10' W 000°54'815.5
2018-Aug-06 16:00N 50°08' W 001°06'815.9
2018-Aug-06 15:30N 50°05' W 001°18'916.3
2018-Aug-06 14:58N 50°03' W 001°31'816.4
2018-Aug-06 14:30N 50°01' W 001°43'816.6
2018-Aug-06 14:00N 49°59' W 001°55'816.5
2018-Aug-06 13:30N 49°57' W 002°07'815.8
2018-Aug-06 13:00N 49°55' W 002°19'815.2
2018-Aug-06 12:30N 49°53' W 002°31'714.6
2018-Aug-06 12:00N 49°51' W 002°41'714.4
2018-Aug-06 11:30N 49°49' W 002°52'714.1
2018-Aug-06 11:00N 49°46' W 003°02'713.8
2018-Aug-06 10:30N 49°42' W 003°11'713.6
2018-Aug-06 10:00N 49°39' W 003°20'713.7
2018-Aug-06 09:30N 49°36' W 003°29'713.6
2018-Aug-06 09:00N 49°32' W 003°39'713.5
2018-Aug-06 08:30N 49°29' W 003°48'713.4
2018-Aug-06 08:00N 49°26' W 003°57'713.4
2018-Aug-06 07:30N 49°23' W 004°06'713.3
2018-Aug-06 06:58N 49°19' W 004°15'613.3
2018-Aug-06 06:30N 49°16' W 004°24'613.1
2018-Aug-06 06:01N 49°13' W 004°32'713.3
2018-Aug-06 05:31N 49°10' W 004°41'713.0
2018-Aug-06 05:00N 49°06' W 004°50'612.8
2018-Aug-06 04:30N 49°03' W 004°58'612.9
2018-Aug-06 04:00N 48°60' W 005°06'612.8
2018-Aug-06 03:30N 48°56' W 005°15'713.0
2018-Aug-06 03:00N 48°53' W 005°23'713.1
2018-Aug-06 02:30N 48°49' W 005°31'612.6
2018-Aug-06 02:00N 48°45' W 005°39'613.2
2018-Aug-06 01:30N 48°39' W 005°43'713.1
2018-Aug-06 00:58N 48°33' W 005°48'913.1
2018-Aug-06 00:17N 48°25' W 005°55'1313.6
2018-Aug-05 23:20N 48°14' W 006°04'513.6
2018-Aug-05 22:58N 48°09' W 006°08'613.7
2018-Aug-05 22:30N 48°04' W 006°12'713.6
2018-Aug-05 22:00N 47°58' W 006°17'32113.7
2018-Aug-04 22:31N 43°13' W 009°46'012.7
2018-Aug-04 22:31N 43°12' W 009°46'1713.0
2018-Aug-04 21:11N 42°55' W 009°48'312.7
2018-Aug-04 20:59N 42°53' W 009°48'712.9
2018-Aug-04 20:29N 42°46' W 009°48'613.1
2018-Aug-04 20:00N 42°40' W 009°48'712.9
2018-Aug-04 19:25N 42°32' W 009°48'3513.4
2018-Aug-04 16:48N 41°57' W 009°49'1313.5
2018-Aug-04 15:52N 41°45' W 009°49'513.2
2018-Aug-04 15:28N 41°39' W 009°49'5713.5
2018-Aug-04 11:15N 40°43' W 009°50'513.4
2018-Aug-04 10:55N 40°38' W 009°50'1313.6
2018-Aug-04 09:55N 40°24' W 009°50'614.1
2018-Aug-04 09:30N 40°19' W 009°50'713.9
2018-Aug-04 09:00N 40°12' W 009°50'2013.9
2018-Aug-04 07:36N 39°52' W 009°51'313.9
2018-Aug-04 07:21N 39°49' W 009°51'514.1
2018-Aug-04 07:00N 39°44' W 009°51'714.1
2018-Aug-04 06:29N 39°36' W 009°51'713.8
2018-Aug-04 06:00N 39°30' W 009°51'714.0
2018-Aug-04 05:31N 39°23' W 009°51'  
Track history (hours):
 
Tides and Currents Weather Stations Pressure Air Temp Water Temp Dewpoint Dewpoint Depression Visibility Wind Speed Wind Dir Waves Ship Positions

Cielo Di Capri

Last reported at 2018-Aug-14 05:21 UTC. Time now 2018-Aug-14 07:01 UTC.
Position N 55°23' E 011°02'.

Length 184 m; draft 12.1 m.

Type: Tanker. MMSI: 249435000.

Date/timePositionNaut miles runAvg speedWind from/ knotsBaromVisibWave heightAir tempDewpointWater temp
2018-Aug-14 05:21N 55°23' E 011°02'512.9
2018-Aug-14 04:59N 55°18' E 011°03'612.0
2018-Aug-14 04:28N 55°12' E 011°05'512.0
2018-Aug-14 04:00N 55°08' E 010°59'612.4
2018-Aug-14 03:30N 55°01' E 010°60'611.5
2018-Aug-14 03:00N 54°57' E 010°54'5 9.7
2018-Aug-14 02:30N 54°52' E 010°50'510.2
2018-Aug-14 02:00N 54°47' E 010°49'510.2
2018-Aug-14 01:30N 54°42' E 010°47'510.3
2018-Aug-14 01:00N 54°39' E 010°53'510.3
2018-Aug-14 00:30N 54°36' E 011°01'510.5
2018-Aug-14 00:00N 54°36' E 011°10'510.7
2018-Aug-13 23:30N 54°34' E 011°19'510.9
2018-Aug-13 23:00N 54°31' E 011°27'510.9
2018-Aug-13 22:30N 54°29' E 011°36'510.8
2018-Aug-13 22:00N 54°27' E 011°44'510.0
2018-Aug-13 21:30N 54°26' E 011°52'510.7
2018-Aug-13 21:00N 54°26' E 012°02'510.4
2018-Aug-13 20:30N 54°26' E 012°11'710.8
2018-Aug-13 19:53N 54°33' E 012°14'410.1
2018-Aug-13 19:27N 54°37' E 012°17'510.5
2018-Aug-13 19:00N 54°40' E 012°23'612.7
2018-Aug-13 18:30N 54°44' E 012°32'713.2
2018-Aug-13 18:01N 54°47' E 012°42'713.2
2018-Aug-13 17:30N 54°49' E 012°52'713.5
2018-Aug-13 17:00N 54°52' E 013°03'713.4
2018-Aug-13 16:30N 54°54' E 013°14'713.1
2018-Aug-13 16:00N 54°56' E 013°25'713.2
2018-Aug-13 15:30N 54°58' E 013°36'613.1
2018-Aug-13 15:01N 55°01' E 013°47'713.1
2018-Aug-13 14:30N 55°03' E 013°57'612.4
2018-Aug-13 14:00N 55°06' E 014°07'713.0
2018-Aug-13 13:30N 55°11' E 014°14'712.9
2018-Aug-13 13:00N 55°16' E 014°22'713.0
2018-Aug-13 12:29N 55°21' E 014°29'613.1
2018-Aug-13 12:01N 55°26' E 014°36'713.1
2018-Aug-13 11:31N 55°32' E 014°41'713.3
2018-Aug-13 11:00N 55°38' E 014°46'713.4
2018-Aug-13 10:31N 55°44' E 014°50'713.1
2018-Aug-13 10:00N 55°50' E 014°55'612.8
2018-Aug-13 09:30N 55°56' E 014°60'611.6
2018-Aug-13 09:00N 56°01' E 014°55'611.5
2018-Aug-13 08:30N 56°06' E 014°50'3 5.4
2018-Aug-13 08:00N 56°09' E 014°49'  
2018-Aug-10 23:27N 56°09' E 014°50'0 0.9
2018-Aug-10 23:00N 56°09' E 014°49'2 4.8
2018-Aug-10 22:30N 56°07' E 014°49'1 2.1
2018-Aug-10 21:59N 56°06' E 014°50'0 0.1
2018-Aug-10 21:29N 56°06' E 014°50'0 0.0
2018-Aug-10 20:50N 56°06' E 014°50'0 0.0
2018-Aug-10 20:29N 56°06' E 014°50'0 0.0
2018-Aug-10 19:59N 56°06' E 014°50'0 0.0
2018-Aug-10 19:29N 56°06' E 014°50'0 0.0
2018-Aug-10 18:59N 56°06' E 014°50'0 0.1
2018-Aug-10 18:29N 56°06' E 014°50'0 0.0
2018-Aug-10 17:53N 56°06' E 014°51'0 0.0
2018-Aug-10 17:29N 56°06' E 014°51'0 0.0
2018-Aug-10 16:59N 56°06' E 014°51'0 0.1
2018-Aug-10 16:26N 56°06' E 014°51'0 0.0
2018-Aug-10 15:59N 56°06' E 014°51'0 0.0
2018-Aug-10 15:26N 56°06' E 014°51'0 0.1
2018-Aug-10 14:59N 56°06' E 014°51'0 0.0
2018-Aug-10 14:29N 56°06' E 014°50'0 0.0
2018-Aug-10 13:53N 56°06' E 014°50'0 0.0
2018-Aug-10 13:29N 56°06' E 014°51'0 0.0
2018-Aug-10 12:59N 56°06' E 014°50'0 0.1
2018-Aug-10 12:29N 56°06' E 014°50'0 0.0
2018-Aug-10 11:56N 56°06' E 014°50'0 0.1
2018-Aug-10 11:29N 56°06' E 014°50'0 0.0
2018-Aug-10 10:59N 56°06' E 014°50'0 0.0
2018-Aug-10 10:29N 56°06' E 014°50'0 0.0
2018-Aug-10 09:59N 56°06' E 014°50'0 0.0
2018-Aug-10 09:29N 56°06' E 014°50'0 0.0
2018-Aug-10 08:59N 56°06' E 014°50'0 0.0
2018-Aug-10 08:29N 56°06' E 014°50'0 0.0
2018-Aug-10 07:59N 56°06' E 014°50'0 0.0
2018-Aug-10 07:29N 56°06' E 014°50'0 0.0
2018-Aug-10 06:59N 56°06' E 014°50'0 0.0
2018-Aug-10 06:29N 56°06' E 014°50'0 0.0
2018-Aug-10 05:59N 56°06' E 014°50'0 0.1
2018-Aug-10 05:29N 56°06' E 014°50'0 0.0
2018-Aug-10 04:59N 56°06' E 014°50'0 0.1
2018-Aug-10 04:29N 56°06' E 014°50'0 0.0
2018-Aug-10 03:59N 56°06' E 014°50'0 0.0
2018-Aug-10 03:26N 56°06' E 014°50'0 0.1
2018-Aug-10 02:59N 56°06' E 014°50'0 0.0
2018-Aug-10 02:29N 56°06' E 014°50'0 0.0
2018-Aug-10 01:59N 56°06' E 014°50'0 0.0
2018-Aug-10 01:29N 56°06' E 014°50'0 0.0
2018-Aug-10 00:56N 56°06' E 014°50'0 0.2
2018-Aug-10 00:26N 56°06' E 014°50'0 0.4
2018-Aug-09 23:56N 56°06' E 014°50'0 0.0
2018-Aug-09 23:26N 56°06' E 014°50'0 0.0
2018-Aug-09 22:56N 56°06' E 014°50'0 0.0
2018-Aug-09 22:26N 56°06' E 014°50'0 0.0
2018-Aug-09 21:56N 56°06' E 014°50'0 0.0
2018-Aug-09 21:26N 56°06' E 014°50'0 0.0
2018-Aug-09 20:56N 56°06' E 014°50'0 0.2
2018-Aug-09 20:29N 56°06' E 014°50'2 3.2
2018-Aug-09 20:00N 56°04' E 014°51'4 8.4
2018-Aug-09 19:31N 56°01' E 014°56'612.8
2018-Aug-09 19:00N 55°55' E 014°51'612.8
2018-Aug-09 18:30N 55°49' E 014°48'612.8
2018-Aug-09 18:00N 55°43' E 014°45'612.7
2018-Aug-09 17:30N 55°37' E 014°42'612.6
2018-Aug-09 17:00N 55°31' E 014°39'611.6
2018-Aug-09 16:30N 55°25' E 014°41'612.7
2018-Aug-09 16:00N 55°20' E 014°34'612.5
2018-Aug-09 15:30N 55°15' E 014°28'612.4
2018-Aug-09 15:00N 55°10' E 014°21'612.0
2018-Aug-09 14:30N 55°09' E 014°11'612.8
2018-Aug-09 14:00N 55°10' E 013°59'712.9
2018-Aug-09 13:30N 55°11' E 013°48'712.7
2018-Aug-09 12:57N 55°12' E 013°36'612.6
2018-Aug-09 12:30N 55°12' E 013°26'713.1
2018-Aug-09 12:00N 55°13' E 013°15'612.9
2018-Aug-09 11:30N 55°14' E 013°04'612.9
2018-Aug-09 11:00N 55°15' E 012°52'612.9
2018-Aug-09 10:30N 55°17' E 012°42'510.0
2018-Aug-09 10:00N 55°22' E 012°38'612.9
2018-Aug-09 09:30N 55°28' E 012°39'4 9.0
2018-Aug-09 09:00N 55°32' E 012°42'4 8.6
2018-Aug-09 08:30N 55°37' E 012°42'510.4
2018-Aug-09 08:00N 55°42' E 012°41'612.4
2018-Aug-09 07:30N 55°48' E 012°42'612.2
2018-Aug-09 07:00N 55°54' E 012°39'612.3
2018-Aug-09 06:30N 55°60' E 012°38'611.6
2018-Aug-09 06:00N 56°05' E 012°35'612.4
2018-Aug-09 05:30N 56°09' E 012°26'712.7
2018-Aug-09 04:59N 56°13' E 012°16'1512.2
2018-Aug-09 03:47N 56°25' E 012°01'3 8.9
2018-Aug-09 03:27N 56°28' E 011°59'1111.8
2018-Aug-09 02:31N 56°39' E 011°55'513.3
2018-Aug-09 02:06N 56°44' E 011°53'213.4
2018-Aug-09 01:58N 56°46' E 011°52'713.1
2018-Aug-09 01:25N 56°52' E 011°48'513.0
2018-Aug-09 01:00N 56°58' E 011°44'713.4
2018-Aug-09 00:28N 57°04' E 011°40'613.1
2018-Aug-09 00:00N 57°10' E 011°36'612.9
2018-Aug-08 23:30N 57°16' E 011°32'612.9
2018-Aug-08 23:00N 57°22' E 011°28'612.7
2018-Aug-08 22:31N 57°28' E 011°24'612.7
2018-Aug-08 22:00N 57°33' E 011°17'612.4
2018-Aug-08 21:31N 57°38' E 011°10'612.2
2018-Aug-08 21:00N 57°43' E 011°04'612.2
2018-Aug-08 20:30N 57°48' E 010°57'612.3
2018-Aug-08 20:00N 57°53' E 010°50'611.7
2018-Aug-08 19:29N 57°55' E 010°40'713.7
2018-Aug-08 19:00N 57°55' E 010°27'713.3
2018-Aug-08 18:30N 57°55' E 010°15'813.8
2018-Aug-08 17:57N 57°55' E 010°01'19712.4
2018-Aug-08 02:10N 55°32' E 005°55'313.0
2018-Aug-08 01:55N 55°29' E 005°53'11712.6
2018-Aug-07 16:36N 53°45' E 004°19'1113.1
2018-Aug-07 15:47N 53°39' E 004°05'813.3
2018-Aug-07 15:09N 53°34' E 003°54'213.3
2018-Aug-07 15:00N 53°32' E 003°51'712.8
2018-Aug-07 14:29N 53°27' E 003°44'1113.3
2018-Aug-07 13:38N 53°17' E 003°36'213.6
2018-Aug-07 13:30N 53°15' E 003°34'713.5
2018-Aug-07 13:00N 53°09' E 003°30'713.6
2018-Aug-07 12:30N 53°03' E 003°25'713.8
2018-Aug-07 12:00N 52°57' E 003°21'713.8
2018-Aug-07 11:30N 52°50' E 003°17'714.0
2018-Aug-07 11:01N 52°44' E 003°11'714.0
2018-Aug-07 10:30N 52°38' E 003°06'714.0
2018-Aug-07 10:01N 52°32' E 003°00'713.9
2018-Aug-07 09:30N 52°26' E 002°55'713.7
2018-Aug-07 09:00N 52°20' E 002°50'713.5
2018-Aug-07 08:30N 52°14' E 002°45'713.1
2018-Aug-07 08:00N 52°07' E 002°42'713.1
2018-Aug-07 07:30N 52°01' E 002°40'612.5
2018-Aug-07 07:00N 51°56' E 002°46'511.0
2018-Aug-07 06:30N 51°51' E 002°42'612.5
2018-Aug-07 06:01N 51°46' E 002°35'612.2
2018-Aug-07 05:30N 51°41' E 002°29'612.2
2018-Aug-07 05:00N 51°37' E 002°22'611.7
2018-Aug-07 04:30N 51°32' E 002°16'611.3
2018-Aug-07 04:01N 51°28' E 002°10'611.4
2018-Aug-07 03:30N 51°24' E 002°04'611.3
2018-Aug-07 03:01N 51°20' E 001°58'611.2
2018-Aug-07 02:30N 51°15' E 001°52'611.1
2018-Aug-07 02:01N 51°11' E 001°46'611.1
2018-Aug-07 01:31N 51°07' E 001°41'611.2
2018-Aug-07 01:00N 51°02' E 001°36'612.1
2018-Aug-07 00:30N 50°58' E 001°29'612.8
2018-Aug-07 00:00N 50°52' E 001°25'713.4
2018-Aug-06 23:30N 50°45' E 001°22'612.8
2018-Aug-06 23:00N 50°40' E 001°17'713.5
2018-Aug-06 22:30N 50°36' E 001°09'713.5
2018-Aug-06 22:01N 50°31' E 001°00'713.6
2018-Aug-06 21:31N 50°29' E 000°51'713.4
2018-Aug-06 21:00N 50°26' E 000°41'713.6
2018-Aug-06 20:30N 50°25' E 000°31'713.4
2018-Aug-06 20:00N 50°23' E 000°20'713.4
2018-Aug-06 19:30N 50°21' E 000°10'713.6
2018-Aug-06 19:00N 50°19' E 000°00'714.0
2018-Aug-06 18:31N 50°17' W 000°10'713.9
2018-Aug-06 18:00N 50°15' W 000°21'714.4
2018-Aug-06 17:30N 50°13' W 000°32'714.6
2018-Aug-06 17:00N 50°12' W 000°43'815.1
2018-Aug-06 16:30N 50°10' W 000°54'815.5
2018-Aug-06 16:00N 50°08' W 001°06'815.9
2018-Aug-06 15:30N 50°05' W 001°18'916.3
2018-Aug-06 14:58N 50°03' W 001°31'816.4
2018-Aug-06 14:30N 50°01' W 001°43'816.6
2018-Aug-06 14:00N 49°59' W 001°55'816.5
2018-Aug-06 13:30N 49°57' W 002°07'815.8
2018-Aug-06 13:00N 49°55' W 002°19'815.2
2018-Aug-06 12:30N 49°53' W 002°31'714.6
2018-Aug-06 12:00N 49°51' W 002°41'714.4
2018-Aug-06 11:30N 49°49' W 002°52'714.1
2018-Aug-06 11:00N 49°46' W 003°02'713.8
2018-Aug-06 10:30N 49°42' W 003°11'713.6
2018-Aug-06 10:00N 49°39' W 003°20'713.7
2018-Aug-06 09:30N 49°36' W 003°29'713.6
2018-Aug-06 09:00N 49°32' W 003°39'713.5
2018-Aug-06 08:30N 49°29' W 003°48'713.4
2018-Aug-06 08:00N 49°26' W 003°57'713.4
2018-Aug-06 07:30N 49°23' W 004°06'713.3
2018-Aug-06 06:58N 49°19' W 004°15'613.3
2018-Aug-06 06:30N 49°16' W 004°24'613.1
2018-Aug-06 06:01N 49°13' W 004°32'713.3
2018-Aug-06 05:31N 49°10' W 004°41'713.0
2018-Aug-06 05:00N 49°06' W 004°50'612.8
2018-Aug-06 04:30N 49°03' W 004°58'612.9
2018-Aug-06 04:00N 48°60' W 005°06'612.8
2018-Aug-06 03:30N 48°56' W 005°15'713.0
2018-Aug-06 03:00N 48°53' W 005°23'713.1
2018-Aug-06 02:30N 48°49' W 005°31'612.6
2018-Aug-06 02:00N 48°45' W 005°39'613.2
2018-Aug-06 01:30N 48°39' W 005°43'713.1
2018-Aug-06 00:58N 48°33' W 005°48'913.1
2018-Aug-06 00:17N 48°25' W 005°55'1313.6
2018-Aug-05 23:20N 48°14' W 006°04'513.6
2018-Aug-05 22:58N 48°09' W 006°08'613.7
2018-Aug-05 22:30N 48°04' W 006°12'713.6
2018-Aug-05 22:00N 47°58' W 006°17'32113.7
2018-Aug-04 22:31N 43°13' W 009°46'012.7
2018-Aug-04 22:31N 43°12' W 009°46'1713.0
2018-Aug-04 21:11N 42°55' W 009°48'312.7
2018-Aug-04 20:59N 42°53' W 009°48'712.9
2018-Aug-04 20:29N 42°46' W 009°48'613.1
2018-Aug-04 20:00N 42°40' W 009°48'712.9
2018-Aug-04 19:25N 42°32' W 009°48'3513.4
2018-Aug-04 16:48N 41°57' W 009°49'1313.5
2018-Aug-04 15:52N 41°45' W 009°49'513.2
2018-Aug-04 15:28N 41°39' W 009°49'5713.5
2018-Aug-04 11:15N 40°43' W 009°50'513.4
2018-Aug-04 10:55N 40°38' W 009°50'1313.6
2018-Aug-04 09:55N 40°24' W 009°50'614.1
2018-Aug-04 09:30N 40°19' W 009°50'713.9
2018-Aug-04 09:00N 40°12' W 009°50'2013.9
2018-Aug-04 07:36N 39°52' W 009°51'313.9
2018-Aug-04 07:21N 39°49' W 009°51'514.1
2018-Aug-04 07:00N 39°44' W 009°51'714.1
2018-Aug-04 06:29N 39°36' W 009°51'713.8
2018-Aug-04 06:00N 39°30' W 009°51'714.0
2018-Aug-04 05:31N 39°23' W 009°51'  

Dump ship's entire track history